Turin, Georgia
Current Conditions -  °F | °C
As of 6:53 AM on Monday 24 Nov 2014 (Local Time) from KFFC Reporting Station
Clear Clear  
Wind Chill: 63°   Ceiling: Unl
Heat Index: 63°   Visibility: 9mi
Dew Point: 60°   Wind: 5mph
Humidity: 90%   Direction: 220°SW
Pressure: 29.78"   Gusts: NA
Location:  33.33°N, 84.64°W
Report Text: KFFC 241153Z AUTO 22004KT 9SM CLR 17/16 A2978 RMK AO2 SLP084 70158 T01720156 10178 20167 53006
Loading
Personal Weather Stations






























Interactive Weather Map New forecast layout! Learn more

10-Day Weather Forecast

Advertisements
Track Severe Weather on mobile